首页
METAR-TAF:

METAR-TAF

机场 :

庫斯塔奈, 哈萨克斯坦

纬度: 53-12-23N, 经度: 063-33-03E, 海拔: 182米

当前天气观测

该预报发布于35分钟前的21:30 UTC
风速12节,风向西南
温度 -1°C
湿度 86%
气压 1019 hPa
能见度10公里或以上
1500米以下无云,无积雨云

METAR: UAUU 272130Z 22006MPS CAVOK M01/M03 Q1019 R15/590145 NOSIG RMK QFE748/0997

时间: 04:05 (22:05 UTC)

预报

该预报发布于2小时和5分钟前的20:00 UTC
预报有效从27日的 21点(UTC)到 28日的 06点(UTC)
风速17节,风向西南
能見度: 3100
多云层高于2000英尺, 积雨云.
小阵雪, 雨, 轻雾
短暂存在
从 27日的 21点(UTC)到 28日的 04点(UTC)
风速25节,风向西转西南
能見度: 1000
多云层高于500英尺
多云层高于1100英尺, 积雨云.
阵雪, 雨, 高吹雪

TAF: UAUU 272000Z 2721/2806 23009MPS 3100 -SHSNRA BR BKN020CB TEMPO 2721/2804 24013MPS 1000 SHSNRA BLSN BKN005 BKN011CB

超过4000个机场的气象观测和天气预报(METAR&TAF报告)。

可查询的气象台以黄色和红色小点在地图上表示。

将鼠标移到小点上方,可查看气象台名称。

然后点击查看天气观测和预报。

如需切换地图:点击带黑十字的绿色按钮放大地图;点击带横线的绿色按钮缩小地图;或者点击绿色箭头查看邻近地区的地图。


METAR-TAF: